Time;durP1;ratioP1;P1;durP2;ratioP2;P2;SDS_P1;SDS_P2;PMS_P1;PMS_P2;Temp;Humidity;BMP_temperature;BMP_pressure;BME280_temperature;BME280_humidity;BME280_pressure;Samples;Min_cycle;Max_cycle;Signal;HPM_P1;HPM_P2
2022/09/11 00:01:08;;;;;;;0.20;0.20;;;16.80;99.90;;;;;;5075993;28;20267;-79
2022/09/11 00:03:35;;;;;;;0.43;0.43;;;16.80;99.90;;;;;;5074355;28;20472;-79
2022/09/11 00:06:05;;;;;;;0.27;0.27;;;16.70;99.90;;;;;;5073120;28;20192;-79
2022/09/11 00:08:31;;;;;;;0.20;0.20;;;16.70;99.90;;;;;;5071463;28;20210;-79
2022/09/11 00:11:16;;;;;;;0.50;0.50;;;16.80;99.90;;;;;;5073184;28;20176;-79
2022/09/11 00:13:48;;;;;;;1.23;0.83;;;16.70;99.90;;;;;;5072050;28;20191;-79
2022/09/11 00:16:36;;;;;;;0.37;0.37;;;16.80;99.90;;;;;;5071693;28;20203;-79
2022/09/11 00:19:07;;;;;;;0.50;0.20;;;16.80;99.90;;;;;;5074311;28;20254;-79
2022/09/11 00:21:33;;;;;;;0.33;0.33;;;16.90;99.90;;;;;;5070339;28;20208;-79
2022/09/11 00:24:00;;;;;;;0.20;0.20;;;16.90;99.90;;;;;;5081094;28;20193;-79
2022/09/11 00:26:26;;;;;;;0.40;0.40;;;17.00;99.90;;;;;;5071194;28;20185;-79
2022/09/11 00:28:53;;;;;;;0.30;0.30;;;17.00;99.90;;;;;;5073016;28;20215;-79
2022/09/11 00:31:24;;;;;;;0.37;0.37;;;17.10;99.90;;;;;;5075423;28;21306;-80
2022/09/11 00:33:50;;;;;;;0.30;0.30;;;17.10;99.90;;;;;;5074482;28;20181;-80
2022/09/11 00:36:20;;;;;;;0.20;0.20;;;17.00;99.90;;;;;;5076187;28;20182;-79
2022/09/11 00:38:46;;;;;;;0.30;0.30;;;17.10;99.90;;;;;;5077453;28;20213;-79
2022/09/11 00:41:34;;;;;;;0.40;0.40;;;17.10;99.90;;;;;;5077334;28;20196;-79
2022/09/11 00:44:06;;;;;;;0.50;0.50;;;17.10;99.90;;;;;;5078935;28;20611;-79
2022/09/11 00:46:37;;;;;;;0.40;0.40;;;17.10;99.90;;;;;;5075510;28;20185;-80
2022/09/11 00:49:31;;;;;;;0.50;0.50;;;17.10;99.90;;;;;;5076308;28;20199;-79
2022/09/11 00:52:18;;;;;;;0.20;0.20;;;17.10;99.90;;;;;;5075718;28;20257;-79
2022/09/11 00:55:07;;;;;;;1.27;0.30;;;17.10;99.90;;;;;;5076817;28;20177;-80
2022/09/11 00:57:41;;;;;;;0.40;0.40;;;17.10;99.90;;;;;;5062172;28;20556;-79
2022/09/11 01:00:08;;;;;;;0.37;0.30;;;17.20;99.90;;;;;;5073355;28;20173;-79
2022/09/11 01:02:35;;;;;;;0.50;0.50;;;17.20;99.90;;;;;;5076487;28;20212;-79
2022/09/11 01:05:03;;;;;;;0.60;0.57;;;17.30;99.90;;;;;;5076095;28;20184;-79
2022/09/11 01:07:30;;;;;;;0.80;0.80;;;17.30;99.90;;;;;;5075151;28;20215;-79
2022/09/11 01:09:58;;;;;;;1.83;1.73;;;17.30;99.90;;;;;;5074467;28;20265;-79
2022/09/11 01:12:26;;;;;;;3.63;0.80;;;17.20;99.90;;;;;;5075231;28;20222;-79
2022/09/11 01:14:59;;;;;;;0.40;0.40;;;17.20;99.90;;;;;;5071656;28;20181;-79
2022/09/11 01:17:43;;;;;;;0.47;0.47;;;17.20;99.90;;;;;;5071960;28;20255;-79
2022/09/11 01:20:45;;;;;;;0.37;0.37;;;17.20;99.90;;;;;;5074367;28;20731;-79
2022/09/11 01:23:26;;;;;;;0.40;0.40;;;17.10;99.90;;;;;;5071441;28;20207;-80
2022/09/11 01:26:13;;;;;;;0.60;0.60;;;17.00;99.90;;;;;;5074286;28;20187;-79
2022/09/11 01:28:49;;;;;;;1.33;0.60;;;16.90;99.90;;;;;;5072017;28;20214;-79
2022/09/11 01:31:19;;;;;;;0.73;0.73;;;16.90;99.90;;;;;;5073035;28;20188;-79
2022/09/11 01:33:54;;;;;;;0.93;0.60;;;16.90;99.90;;;;;;5071100;28;20185;-80
2022/09/11 01:36:43;;;;;;;0.73;0.60;;;16.90;99.90;;;;;;5072682;28;20573;-79
2022/09/11 01:39:09;;;;;;;0.50;0.50;;;16.80;99.90;;;;;;5070391;28;20977;-79
2022/09/11 01:41:52;;;;;;;0.57;0.57;;;16.60;99.90;;;;;;5072933;28;20208;-79
2022/09/11 01:44:31;;;;;;;1.40;0.70;;;16.60;99.90;;;;;;5069546;28;20189;-79
2022/09/11 01:46:57;;;;;;;0.90;0.90;;;16.60;99.90;;;;;;5070519;28;20218;-79
2022/09/11 01:49:37;;;;;;;0.60;0.60;;;16.60;99.90;;;;;;5072208;28;20620;-79
2022/09/11 01:52:08;;;;;;;0.73;0.73;;;16.50;99.90;;;;;;5072087;28;20622;-79
2022/09/11 01:54:45;;;;;;;0.50;0.50;;;16.30;99.90;;;;;;5072239;28;21027;-79
2022/09/11 01:57:35;;;;;;;0.67;0.67;;;16.30;99.90;;;;;;5070031;28;20249;-79
2022/09/11 02:00:09;;;;;;;0.80;0.57;;;16.40;99.90;;;;;;5075291;28;20185;-79
2022/09/11 02:02:39;;;;;;;0.67;0.63;;;16.50;99.90;;;;;;5071435;28;20206;-79
2022/09/11 02:05:14;;;;;;;0.90;0.90;;;16.50;99.90;;;;;;5071726;28;20245;-79
2022/09/11 02:08:00;;;;;;;1.00;1.00;;;16.40;99.90;;;;;;5075233;28;20592;-79
2022/09/11 02:10:41;;;;;;;0.93;0.50;;;16.40;99.90;;;;;;5090584;27;20204;-80
2022/09/11 02:13:29;;;;;;;0.87;0.53;;;16.40;99.90;;;;;;5072349;28;20701;-79
2022/09/11 02:16:04;;;;;;;0.73;0.73;;;16.50;99.90;;;;;;5072150;28;21065;-80
2022/09/11 02:18:43;;;;;;;2.33;1.43;;;16.50;99.90;;;;;;5073282;28;20631;-79
2022/09/11 02:21:11;;;;;;;1.07;1.00;;;16.40;99.90;;;;;;5074826;28;20178;-79
2022/09/11 02:23:38;;;;;;;1.00;1.00;;;16.30;99.90;;;;;;5071101;28;20194;-79
2022/09/11 02:26:07;;;;;;;1.03;0.93;;;16.30;99.90;;;;;;5071651;28;20558;-79
2022/09/11 02:28:33;;;;;;;0.90;0.90;;;16.30;99.90;;;;;;5081248;28;20677;-79
2022/09/11 02:31:02;;;;;;;0.73;0.73;;;16.20;99.90;;;;;;5073096;28;20196;-79
2022/09/11 02:33:32;;;;;;;1.57;0.93;;;16.30;99.90;;;;;;5072846;28;20336;-79
2022/09/11 02:36:17;;;;;;;1.53;1.43;;;16.30;99.90;;;;;;5071504;28;21032;-79
2022/09/11 02:39:20;;;;;;;0.77;0.77;;;16.30;99.90;;;;;;5072659;28;20854;-79
2022/09/11 02:42:24;;;;;;;0.97;0.97;;;16.30;99.90;;;;;;5072038;28;20263;-79
2022/09/11 02:45:18;;;;;;;1.00;1.00;;;16.30;99.90;;;;;;5043763;28;20278;-79
2022/09/11 02:48:04;;;;;;;0.60;0.60;;;16.30;99.90;;;;;;5072500;28;20190;-79
2022/09/11 02:50:46;;;;;;;1.33;1.20;;;16.30;99.90;;;;;;5072521;28;20220;-78
2022/09/11 02:53:46;;;;;;;1.73;1.27;;;16.30;99.90;;;;;;5071892;28;20204;-79
2022/09/11 02:56:38;;;;;;;0.83;0.83;;;16.20;99.90;;;;;;5073743;28;20213;-79
2022/09/11 02:59:14;;;;;;;1.07;0.80;;;16.20;99.90;;;;;;5075278;28;20183;-79
2022/09/11 03:01:52;;;;;;;1.13;0.97;;;16.20;99.90;;;;;;5072862;28;20224;-79
2022/09/11 03:04:19;;;;;;;2.83;1.07;;;16.20;99.90;;;;;;5076406;28;20183;-79
2022/09/11 03:06:47;;;;;;;2.33;1.60;;;16.20;99.90;;;;;;5071274;28;20568;-79
2022/09/11 03:09:13;;;;;;;1.60;1.50;;;16.20;99.90;;;;;;5073657;28;20203;-79
2022/09/11 03:11:40;;;;;;;0.97;0.97;;;16.10;99.90;;;;;;5072204;28;20228;-79
2022/09/11 03:14:06;;;;;;;2.20;0.90;;;16.20;99.90;;;;;;5073433;28;20271;-79
2022/09/11 03:16:32;;;;;;;1.03;0.80;;;16.20;99.90;;;;;;5080571;28;20295;-79
2022/09/11 03:18:58;;;;;;;2.67;1.70;;;16.10;99.90;;;;;;5075574;28;20184;-80
2022/09/11 03:21:24;;;;;;;1.17;1.07;;;16.20;99.90;;;;;;5074507;28;20572;-79
2022/09/11 03:23:51;;;;;;;1.43;1.03;;;16.20;99.90;;;;;;5072373;28;20192;-79
2022/09/11 03:26:17;;;;;;;0.70;0.70;;;16.20;99.90;;;;;;5072851;28;20205;-79
2022/09/11 03:28:43;;;;;;;1.67;1.23;;;16.20;99.90;;;;;;5072837;28;20251;-78
2022/09/11 03:31:10;;;;;;;1.47;1.37;;;16.10;99.90;;;;;;5072558;28;20210;-80
2022/09/11 03:33:36;;;;;;;3.17;0.80;;;16.10;99.90;;;;;;5071918;28;20178;-79
2022/09/11 03:36:02;;;;;;;0.70;0.67;;;16.10;99.90;;;;;;5074095;28;20184;-79
2022/09/11 03:38:29;;;;;;;2.37;1.97;;;16.20;99.90;;;;;;5074169;28;20190;-79
2022/09/11 03:40:55;;;;;;;1.33;1.23;;;16.10;99.90;;;;;;5071322;28;20237;-79
2022/09/11 03:43:21;;;;;;;2.50;1.73;;;16.10;99.90;;;;;;5077036;28;20203;-79
2022/09/11 03:45:51;;;;;;;1.37;1.20;;;16.10;99.90;;;;;;5072882;28;20183;-79
2022/09/11 03:48:17;;;;;;;2.33;1.23;;;16.10;99.90;;;;;;5070758;28;20189;-79
2022/09/11 03:50:47;;;;;;;1.03;0.83;;;16.20;99.90;;;;;;5070613;28;20196;-79
2022/09/11 03:53:14;;;;;;;1.40;0.83;;;16.20;99.90;;;;;;5073568;28;20206;-79
2022/09/11 03:55:40;;;;;;;2.30;2.10;;;16.20;99.90;;;;;;5074972;28;20184;-79
2022/09/11 03:58:08;;;;;;;2.10;1.17;;;16.10;99.90;;;;;;5072073;28;20194;-80
2022/09/11 04:00:35;;;;;;;0.97;0.73;;;16.20;99.90;;;;;;5072314;28;20239;-79
2022/09/11 04:03:01;;;;;;;0.97;0.70;;;16.20;99.90;;;;;;5071959;28;20802;-79
2022/09/11 04:05:27;;;;;;;1.50;1.07;;;16.30;99.90;;;;;;5077081;28;20273;-79
2022/09/11 04:07:54;;;;;;;3.07;1.33;;;16.20;99.90;;;;;;5075516;28;20188;-79
2022/09/11 04:10:20;;;;;;;1.03;1.00;;;16.30;99.90;;;;;;5077292;28;20210;-79
2022/09/11 04:12:47;;;;;;;1.70;1.60;;;16.20;99.90;;;;;;5073167;28;20203;-79
2022/09/11 04:15:14;;;;;;;1.10;1.00;;;16.30;99.90;;;;;;5076271;28;20287;-80
2022/09/11 04:17:42;;;;;;;1.67;1.57;;;16.30;99.90;;;;;;5076999;28;20185;-80
2022/09/11 04:20:09;;;;;;;1.37;1.00;;;16.40;99.90;;;;;;5077277;28;20724;-79
2022/09/11 04:22:35;;;;;;;5.07;1.30;;;16.30;99.90;;;;;;5076874;28;20290;-80
2022/09/11 04:25:01;;;;;;;0.93;0.80;;;16.30;99.90;;;;;;5078655;28;20568;-78
2022/09/11 04:27:27;;;;;;;0.97;0.97;;;16.30;99.90;;;;;;5076688;28;20191;-80
2022/09/11 04:29:53;;;;;;;0.80;0.80;;;16.40;99.90;;;;;;5076108;28;20215;-79
2022/09/11 04:32:19;;;;;;;0.97;0.97;;;16.40;99.90;;;;;;5076496;28;20218;-80
2022/09/11 04:34:45;;;;;;;1.57;1.43;;;16.50;99.90;;;;;;5076258;28;20414;-79
2022/09/11 04:37:11;;;;;;;2.70;1.37;;;16.60;99.90;;;;;;5075714;28;20183;-79
2022/09/11 04:39:37;;;;;;;3.20;1.17;;;16.70;99.90;;;;;;5076764;28;20192;-79
2022/09/11 04:42:04;;;;;;;1.90;1.73;;;16.70;99.90;;;;;;5074753;28;20998;-80
2022/09/11 04:44:31;;;;;;;1.13;0.67;;;16.70;99.90;;;;;;5075180;28;20276;-79
2022/09/11 04:46:58;;;;;;;3.07;1.70;;;16.60;99.90;;;;;;5074098;28;20266;-79
2022/09/11 04:49:24;;;;;;;2.03;1.47;;;16.60;99.90;;;;;;5076583;28;20306;-79
2022/09/11 04:51:50;;;;;;;1.50;0.87;;;16.40;99.90;;;;;;5074485;28;20357;-79
2022/09/11 04:54:20;;;;;;;2.97;1.30;;;16.40;99.90;;;;;;5075516;28;20184;-79
2022/09/11 04:56:47;;;;;;;1.47;1.37;;;16.40;99.90;;;;;;5073951;28;20173;-80
2022/09/11 04:59:16;;;;;;;1.00;1.00;;;16.50;99.90;;;;;;5075661;28;20645;-79
2022/09/11 05:01:43;;;;;;;1.77;1.10;;;16.40;99.90;;;;;;5073924;28;20215;-80
2022/09/11 05:04:11;;;;;;;3.10;1.83;;;16.40;99.90;;;;;;5078195;28;20189;-79
2022/09/11 05:06:38;;;;;;;1.80;1.70;;;16.30;99.90;;;;;;5074246;28;20192;-79
2022/09/11 05:09:07;;;;;;;3.87;1.73;;;16.30;99.90;;;;;;5077413;28;20920;-79
2022/09/11 05:11:33;;;;;;;2.03;1.07;;;16.30;99.90;;;;;;5075303;28;20200;-79
2022/09/11 05:14:00;;;;;;;1.70;1.50;;;16.30;99.90;;;;;;5074303;28;20184;-79
2022/09/11 05:16:27;;;;;;;3.37;1.80;;;16.20;99.90;;;;;;5078159;28;20187;-80
2022/09/11 05:18:55;;;;;;;2.63;1.67;;;16.00;99.90;;;;;;5076831;28;20187;-79
2022/09/11 05:21:23;;;;;;;0.83;0.83;;;15.90;99.90;;;;;;5078122;28;20930;-80
2022/09/11 05:23:51;;;;;;;1.37;1.27;;;15.80;99.90;;;;;;5075393;28;20186;-80
2022/09/11 05:26:23;;;;;;;1.07;1.07;;;15.80;99.90;;;;;;5072371;28;20204;-79
2022/09/11 05:29:07;;;;;;;3.83;1.87;;;15.90;99.90;;;;;;5075676;28;20257;-80
2022/09/11 05:31:37;;;;;;;2.77;1.20;;;16.00;99.90;;;;;;5077063;28;20234;-82
2022/09/11 05:34:03;;;;;;;0.83;0.83;;;16.00;99.90;;;;;;5076481;28;20263;-82
2022/09/11 05:36:35;;;;;;;0.87;0.87;;;16.10;99.90;;;;;;5073719;28;20310;-81
2022/09/11 05:39:02;;;;;;;5.50;1.70;;;16.10;99.90;;;;;;5075786;28;20271;-82
2022/09/11 05:41:28;;;;;;;1.03;0.93;;;16.10;99.90;;;;;;5077141;28;20201;-82
2022/09/11 05:43:56;;;;;;;1.50;1.23;;;16.20;99.90;;;;;;5075338;28;20187;-81
2022/09/11 05:46:23;;;;;;;1.13;1.03;;;16.30;99.90;;;;;;5076779;28;20194;-80
2022/09/11 05:48:49;;;;;;;1.40;1.30;;;16.30;99.90;;;;;;5074123;28;20200;-80
2022/09/11 05:51:20;;;;;;;0.87;0.87;;;16.30;99.90;;;;;;5072952;28;20677;-79
2022/09/11 05:53:54;;;;;;;2.50;2.30;;;16.20;99.90;;;;;;5072878;28;20172;-79
2022/09/11 05:56:24;;;;;;;1.13;0.83;;;16.30;99.90;;;;;;5069137;28;20202;-79
2022/09/11 05:58:57;;;;;;;1.47;1.37;;;16.30;99.90;;;;;;5074874;28;20188;-83
2022/09/11 06:01:26;;;;;;;2.37;1.20;;;16.40;99.90;;;;;;5070953;28;20208;-80
2022/09/11 06:03:55;;;;;;;2.33;1.60;;;16.50;99.90;;;;;;5074707;28;20253;-80
2022/09/11 06:06:22;;;;;;;2.60;1.60;;;16.60;99.90;;;;;;5074992;28;20187;-80
2022/09/11 06:08:50;;;;;;;2.43;2.33;;;16.70;99.90;;;;;;5077649;28;20272;-80
2022/09/11 06:11:18;;;;;;;2.50;1.30;;;16.90;99.90;;;;;;5074851;28;20238;-80
2022/09/11 06:13:45;;;;;;;1.27;0.83;;;17.00;99.90;;;;;;5075447;28;20223;-79
2022/09/11 06:16:16;;;;;;;1.43;1.33;;;17.10;99.90;;;;;;5076458;28;20180;-79
2022/09/11 06:18:43;;;;;;;0.90;0.90;;;17.10;99.90;;;;;;5076312;28;20608;-79
2022/09/11 06:21:16;;;;;;;2.90;0.73;;;17.20;99.90;;;;;;5074964;28;20177;-79
2022/09/11 06:23:48;;;;;;;1.63;1.50;;;17.10;99.90;;;;;;5093151;28;20188;-80
2022/09/11 06:26:16;;;;;;;2.10;1.20;;;17.30;99.90;;;;;;5074496;28;20596;-79
2022/09/11 06:28:42;;;;;;;2.00;1.87;;;17.50;99.90;;;;;;5074850;28;20216;-80
2022/09/11 06:31:16;;;;;;;2.03;1.40;;;17.70;99.90;;;;;;5074678;28;20168;-80
2022/09/11 06:33:42;;;;;;;2.43;2.23;;;17.90;99.90;;;;;;5074134;28;20195;-80
2022/09/11 06:36:13;;;;;;;1.10;0.70;;;18.00;99.90;;;;;;5073099;28;20185;-80
2022/09/11 06:38:39;;;;;;;2.50;0.90;;;18.10;99.90;;;;;;5075182;28;20553;-80
2022/09/11 06:41:12;;;;;;;1.97;1.27;;;18.20;99.90;;;;;;5070594;28;20181;-80
2022/09/11 06:43:39;;;;;;;0.87;0.87;;;18.40;99.90;;;;;;5071280;28;20593;-80
2022/09/11 06:46:11;;;;;;;1.13;1.03;;;18.50;99.90;;;;;;5071893;28;20238;-80
2022/09/11 06:48:41;;;;;;;2.50;1.80;;;18.60;99.90;;;;;;5072851;28;20183;-80
2022/09/11 06:51:10;;;;;;;1.13;1.10;;;18.80;99.90;;;;;;5072278;28;20197;-80
2022/09/11 06:53:36;;;;;;;2.40;1.57;;;18.80;99.90;;;;;;5072361;28;20280;-80
2022/09/11 06:56:03;;;;;;;1.57;1.37;;;18.70;99.90;;;;;;5072761;28;20173;-80
2022/09/11 06:58:30;;;;;;;2.47;2.07;;;18.70;99.90;;;;;;5074594;28;20182;-81
2022/09/11 07:01:09;;;;;;;1.87;1.60;;;18.70;99.90;;;;;;5071401;28;20224;-80
2022/09/11 07:03:36;;;;;;;0.97;0.97;;;18.80;99.90;;;;;;5071540;28;20188;-80
2022/09/11 07:06:02;;;;;;;2.00;1.47;;;18.90;99.90;;;;;;5072818;28;20199;-80
2022/09/11 07:08:29;;;;;;;1.57;1.40;;;19.00;99.90;;;;;;5071159;28;20180;-80
2022/09/11 07:11:01;;;;;;;1.13;1.13;;;19.10;99.90;;;;;;5073236;28;20188;-79
2022/09/11 07:13:28;;;;;;;1.70;1.07;;;19.20;99.90;;;;;;5072956;28;20180;-79
2022/09/11 07:16:06;;;;;;;1.63;1.53;;;19.20;99.90;;;;;;5076317;28;20306;-80
2022/09/11 07:18:38;;;;;;;2.03;1.70;;;19.10;99.90;;;;;;5070710;28;20971;-79
2022/09/11 07:21:10;;;;;;;1.03;0.97;;;19.10;99.90;;;;;;5073231;28;20180;-80
2022/09/11 07:23:37;;;;;;;0.50;0.50;;;19.20;99.90;;;;;;5072743;28;20176;-80
2022/09/11 07:26:06;;;;;;;1.57;1.20;;;19.20;99.90;;;;;;5070981;28;20196;-79
2022/09/11 07:28:33;;;;;;;1.60;1.17;;;19.40;99.90;;;;;;5072990;28;20192;-80
2022/09/11 07:31:13;;;;;;;1.47;1.37;;;19.60;99.90;;;;;;5074431;28;20183;-80
2022/09/11 07:33:49;;;;;;;1.27;1.17;;;19.70;99.90;;;;;;5088303;28;20180;-79
2022/09/11 07:36:26;;;;;;;1.20;0.73;;;19.90;99.90;;;;;;5069914;28;20180;-79
2022/09/11 07:38:53;;;;;;;2.67;1.60;;;20.10;99.90;;;;;;5072532;28;20192;-80
2022/09/11 07:41:21;;;;;;;1.33;1.23;;;20.30;99.90;;;;;;5074603;28;20220;-80
2022/09/11 07:43:52;;;;;;;2.10;1.50;;;20.20;99.90;;;;;;5073419;28;20188;-79
2022/09/11 07:46:18;;;;;;;2.13;1.20;;;20.10;99.90;;;;;;5073810;28;20180;-80
2022/09/11 07:48:44;;;;;;;3.33;1.50;;;20.00;99.90;;;;;;5079806;28;20219;-80
2022/09/11 07:51:12;;;;;;;1.13;1.03;;;19.80;99.90;;;;;;4931012;28;4090023;-80
2022/09/11 07:53:40;;;;;;;1.60;1.33;;;19.80;99.90;;;;;;5071941;28;20604;-80
2022/09/11 07:56:08;;;;;;;1.17;0.90;;;19.80;99.90;;;;;;5074310;28;20234;-79
2022/09/11 07:58:37;;;;;;;1.03;1.03;;;19.90;99.90;;;;;;5072433;28;20273;-80
2022/09/11 08:01:10;;;;;;;0.90;0.90;;;19.90;99.90;;;;;;5075172;28;20665;-80
2022/09/11 08:03:36;;;;;;;0.93;0.83;;;19.90;99.90;;;;;;5074240;28;20613;-79
2022/09/11 08:06:07;;;;;;;2.00;1.17;;;20.10;99.90;;;;;;5072374;28;20276;-80
2022/09/11 08:08:36;;;;;;;1.00;1.00;;;20.30;99.90;;;;;;5069235;28;20231;-80
2022/09/11 08:11:10;;;;;;;1.43;1.23;;;20.40;99.90;;;;;;5072651;28;20187;-80
2022/09/11 08:13:36;;;;;;;1.47;0.80;;;20.80;99.90;;;;;;5071307;28;20649;-80
2022/09/11 08:16:02;;;;;;;1.73;1.40;;;20.90;99.90;;;;;;5072631;28;20420;-80
2022/09/11 08:18:30;;;;;;;1.70;1.60;;;21.40;99.90;;;;;;5069402;28;20195;-80
2022/09/11 08:21:07;;;;;;;2.63;1.47;;;21.80;99.90;;;;;;5068024;28;20554;-80
2022/09/11 08:23:39;;;;;;;2.63;1.77;;;21.80;99.90;;;;;;5067600;28;20315;-81
2022/09/11 08:26:17;;;;;;;1.13;0.87;;;21.70;99.90;;;;;;5072119;28;20295;-80
2022/09/11 08:28:44;;;;;;;2.93;1.27;;;21.60;99.90;;;;;;5069469;28;21085;-80
2022/09/11 08:31:12;;;;;;;0.90;0.83;;;21.90;99.90;;;;;;5072212;28;20185;-80
2022/09/11 08:33:38;;;;;;;2.43;1.13;;;22.00;99.90;;;;;;5075024;28;20192;-80
2022/09/11 08:36:07;;;;;;;3.13;1.53;;;21.70;99.90;;;;;;5071400;28;20228;-80
2022/09/11 08:38:34;;;;;;;0.80;0.80;;;21.60;99.90;;;;;;5071172;28;20197;-80
2022/09/11 08:41:42;;;;;;;0.70;0.70;;;21.50;99.90;;;;;;5072460;28;20194;-80
2022/09/11 08:44:43;;;;;;;1.97;0.97;;;21.60;99.90;;;;;;5070874;28;20185;-80
2022/09/11 08:47:17;;;;;;;2.80;1.77;;;21.50;99.90;;;;;;5071089;28;20560;-80
2022/09/11 08:49:50;;;;;;;5.07;1.70;;;20.80;99.90;;;;;;5074380;28;20281;-80
2022/09/11 08:52:16;;;;;;;1.40;1.30;;;21.00;99.90;;;;;;5077847;28;20681;-80
2022/09/11 08:54:46;;;;;;;2.30;1.63;;;21.50;99.90;;;;;;5073109;28;20654;-80
2022/09/11 08:57:16;;;;;;;1.17;1.03;;;22.00;99.90;;;;;;5074643;28;20645;-80
2022/09/11 09:00:01;;;;;;;1.17;1.03;;;22.10;99.90;;;;;;5074311;28;20272;-80
2022/09/11 09:02:58;;;;;;;0.77;0.73;;;21.90;99.90;;;;;;5074610;28;21113;-81
2022/09/11 09:05:49;;;;;;;1.87;0.97;;;21.90;99.90;;;;;;5073590;28;20292;-80
2022/09/11 09:08:41;;;;;;;1.53;1.43;;;21.80;99.90;;;;;;5072367;28;20189;-80
2022/09/11 09:11:32;;;;;;;2.93;1.20;;;21.10;99.90;;;;;;5076032;28;21062;-80
2022/09/11 09:14:28;;;;;;;1.47;1.33;;;21.10;99.90;;;;;;5075871;28;20177;-80
2022/09/11 09:17:00;;;;;;;1.43;1.30;;;21.10;99.90;;;;;;5074612;28;20596;-80
2022/09/11 09:19:37;;;;;;;0.60;0.60;;;21.10;99.90;;;;;;5073445;28;20551;-80
2022/09/11 09:22:21;;;;;;;0.83;0.83;;;21.30;99.90;;;;;;5074538;28;20641;-80
2022/09/11 09:25:03;;;;;;;2.30;1.03;;;21.40;99.90;;;;;;5075163;28;21328;-80
2022/09/11 09:27:52;;;;;;;3.43;1.53;;;21.40;99.90;;;;;;5073215;28;20216;-80
2022/09/11 09:30:27;;;;;;;0.60;0.60;;;21.50;99.90;;;;;;5076635;28;20200;-80
2022/09/11 09:33:14;;;;;;;0.50;0.50;;;21.50;99.90;;;;;;5082110;28;20235;-80
2022/09/11 09:35:42;;;;;;;4.30;1.17;;;21.60;99.90;;;;;;5074746;28;20272;-80
2022/09/11 09:38:18;;;;;;;0.87;0.87;;;21.80;99.90;;;;;;5076212;28;20176;-80
2022/09/11 09:41:02;;;;;;;1.07;0.97;;;21.90;99.90;;;;;;5073936;28;20181;-80
2022/09/11 09:43:36;;;;;;;0.70;0.70;;;22.30;99.90;;;;;;5075612;28;20180;-80
2022/09/11 09:46:19;;;;;;;0.63;0.63;;;22.90;99.90;;;;;;5073523;28;20942;-81
2022/09/11 09:48:44;;;;;;;1.03;0.87;;;23.20;99.90;;;;;;5075110;28;20181;-80
2022/09/11 09:51:14;;;;;;;1.47;1.00;;;23.30;99.90;;;;;;5073676;28;21059;-79
2022/09/11 09:53:46;;;;;;;2.07;1.57;;;23.00;99.90;;;;;;5072639;28;20185;-80
2022/09/11 09:56:15;;;;;;;0.80;0.57;;;22.70;99.90;;;;;;5075166;28;20654;-81
2022/09/11 09:58:53;;;;;;;1.57;0.67;;;22.50;99.90;;;;;;5073403;28;20621;-80
2022/09/11 10:01:46;;;;;;;1.20;1.10;;;22.20;99.90;;;;;;5074082;28;20208;-81
2022/09/11 10:04:23;;;;;;;1.00;0.97;;;21.70;99.90;;;;;;5074116;28;20175;-79
2022/09/11 10:06:51;;;;;;;0.97;0.73;;;21.30;99.90;;;;;;5071932;28;20184;-80
2022/09/11 10:09:22;;;;;;;1.27;1.27;;;21.10;99.90;;;;;;5072420;28;20307;-79
2022/09/11 10:12:05;;;;;;;0.87;0.87;;;21.00;99.90;;;;;;5073178;28;20203;-80
2022/09/11 10:14:36;;;;;;;0.93;0.77;;;21.10;99.90;;;;;;5072278;28;20199;-80
2022/09/11 10:17:02;;;;;;;0.47;0.47;;;21.00;99.90;;;;;;5073284;28;20177;-80
2022/09/11 10:19:35;;;;;;;1.17;1.17;;;21.00;99.90;;;;;;5074066;28;20800;-80
2022/09/11 10:22:24;;;;;;;0.50;0.50;;;21.10;99.90;;;;;;5073167;28;20678;-80
2022/09/11 10:25:02;;;;;;;0.97;0.90;;;21.20;99.90;;;;;;5070633;28;20184;-80
2022/09/11 10:27:34;;;;;;;0.50;0.50;;;21.40;99.90;;;;;;5073839;28;20215;-79
2022/09/11 10:30:03;;;;;;;0.63;0.63;;;21.60;99.90;;;;;;5073406;28;20196;-80
2022/09/11 10:32:35;;;;;;;0.83;0.83;;;21.90;99.90;;;;;;5073260;28;20201;-80
2022/09/11 10:35:08;;;;;;;0.53;0.53;;;22.10;99.90;;;;;;5074864;28;20311;-80
2022/09/11 10:37:34;;;;;;;0.70;0.70;;;22.00;99.90;;;;;;5074818;28;20180;-79
2022/09/11 10:40:07;;;;;;;1.03;0.80;;;22.10;99.90;;;;;;5070534;28;20207;-80
2022/09/11 10:42:34;;;;;;;0.50;0.50;;;22.70;99.90;;;;;;5074431;28;20212;-80
2022/09/11 10:45:12;;;;;;;1.10;0.97;;;23.00;99.90;;;;;;5073410;28;20192;-80
2022/09/11 10:47:39;;;;;;;1.80;1.10;;;22.50;99.90;;;;;;5073975;28;20207;-80
2022/09/11 10:50:17;;;;;;;0.50;0.50;;;22.60;99.90;;;;;;5072902;28;20609;-80
2022/09/11 10:53:05;;;;;;;1.57;0.70;;;22.80;99.90;;;;;;5070307;28;20299;-80
2022/09/11 10:55:36;;;;;;;0.77;0.77;;;22.90;99.90;;;;;;5071552;28;20172;-80
2022/09/11 10:58:15;;;;;;;1.03;0.93;;;23.00;99.90;;;;;;5074719;28;20750;-80
2022/09/11 11:00:40;;;;;;;1.10;0.73;;;22.90;99.90;;;;;;5072715;28;20185;-80
2022/09/11 11:03:23;;;;;;;1.17;1.10;;;23.00;99.90;;;;;;5071586;28;20549;-80
2022/09/11 11:06:05;;;;;;;0.60;0.60;;;23.10;99.90;;;;;;5073964;28;20181;-80
2022/09/11 11:09:06;;;;;;;1.40;0.67;;;23.00;99.90;;;;;;5071661;28;20733;-81
2022/09/11 11:12:17;;;;;;;3.00;1.30;;;23.20;99.90;;;;;;5041044;28;20212;-80
2022/09/11 11:15:08;;;;;;;1.40;0.70;;;22.60;99.90;;;;;;5072659;28;20189;-80
2022/09/11 11:18:06;;;;;;;0.97;0.87;;;22.50;99.90;;;;;;5069783;28;20242;-80
2022/09/11 11:20:35;;;;;;;0.80;0.63;;;22.90;99.90;;;;;;5073917;28;20208;-80
2022/09/11 11:23:10;;;;;;;1.10;1.00;;;24.10;99.90;;;;;;5071651;28;20200;-80
2022/09/11 11:26:08;;;;;;;1.47;1.10;;;24.40;99.90;;;;;;5072233;28;20172;-80
2022/09/11 11:28:50;;;;;;;0.70;0.70;;;23.50;99.90;;;;;;5078913;28;20278;-81
2022/09/11 11:31:50;;;;;;;1.60;0.77;;;23.60;99.90;;;;;;5072450;28;20199;-81
2022/09/11 11:34:45;;;;;;;0.37;0.37;;;23.50;99.90;;;;;;5072552;28;20654;-80
2022/09/11 11:37:18;;;;;;;0.50;0.50;;;23.50;99.90;;;;;;5043024;28;20192;-80
2022/09/11 11:40:23;;;;;;;1.17;0.93;;;23.50;99.90;;;;;;5072875;28;20195;-80
2022/09/11 11:43:09;;;;;;;0.97;0.70;;;23.00;99.90;;;;;;5074570;28;20376;-80
2022/09/11 11:45:46;;;;;;;0.97;0.93;;;22.80;99.90;;;;;;5073506;28;20184;-80
2022/09/11 11:48:51;;;;;;;0.50;0.50;;;22.80;99.90;;;;;;5075211;28;20279;-80
2022/09/11 11:51:20;;;;;;;0.50;0.50;;;22.70;99.90;;;;;;5072922;28;20191;-80
2022/09/11 11:53:49;;;;;;;1.13;1.03;;;22.40;99.90;;;;;;5073800;28;21189;-80
2022/09/11 11:56:57;;;;;;;0.57;0.57;;;22.20;99.90;;;;;;5075157;28;20248;-80
2022/09/11 11:59:34;;;;;;;0.50;0.50;;;22.50;99.90;;;;;;4967114;28;20187;-80
2022/09/11 12:02:09;;;;;;;0.50;0.50;;;22.80;99.90;;;;;;5063985;28;20216;-80
2022/09/11 12:05:25;;;;;;;0.93;0.80;;;23.00;99.90;;;;;;5073010;28;20184;-80
2022/09/11 12:07:54;;;;;;;1.20;1.10;;;23.10;99.90;;;;;;5001032;28;20187;-80
2022/09/11 12:10:30;;;;;;;0.73;0.73;;;23.20;99.90;;;;;;5000972;28;20288;-80
2022/09/11 12:13:03;;;;;;;0.80;0.70;;;23.30;99.90;;;;;;5042220;28;20208;-80
2022/09/11 12:15:33;;;;;;;0.87;0.67;;;23.20;99.90;;;;;;5081370;28;20177;-80
2022/09/11 12:18:11;;;;;;;0.97;0.90;;;23.00;99.90;;;;;;5069721;28;20183;-80
2022/09/11 12:20:39;;;;;;;3.77;0.70;;;23.00;99.90;;;;;;5068133;28;20192;-80
2022/09/11 12:23:30;;;;;;;0.87;0.73;;;23.00;99.90;;;;;;5073710;28;21404;-80
2022/09/11 12:26:14;;;;;;;1.03;1.03;;;23.10;99.90;;;;;;5075026;28;20314;-81
2022/09/11 12:28:41;;;;;;;1.70;0.80;;;22.90;99.90;;;;;;5077889;28;21047;-81
2022/09/11 12:31:12;;;;;;;1.53;1.43;;;23.00;99.90;;;;;;5075821;28;20657;-81
2022/09/11 12:33:46;;;;;;;1.13;0.93;;;22.70;99.90;;;;;;5074406;28;20682;-81
2022/09/11 12:36:48;;;;;;;2.03;1.60;;;22.70;99.90;;;;;;5074647;28;20187;-80
2022/09/11 12:39:26;;;;;;;0.87;0.87;;;22.40;99.90;;;;;;5073926;28;20256;-81
2022/09/11 12:41:52;;;;;;;3.00;2.67;;;23.10;99.90;;;;;;5074565;28;20541;-81
2022/09/11 12:44:50;;;;;;;0.53;0.53;;;22.60;99.90;;;;;;5074788;28;20714;-81
2022/09/11 12:47:33;;;;;;;1.17;1.03;;;22.30;99.90;;;;;;5067597;28;20193;-80
2022/09/11 12:50:21;;;;;;;1.80;1.40;;;22.00;99.90;;;;;;5074482;28;20203;-80
2022/09/11 12:52:53;;;;;;;1.50;1.40;;;21.90;99.90;;;;;;5079008;28;20205;-81
2022/09/11 12:55:48;;;;;;;1.70;0.97;;;22.00;99.90;;;;;;5076320;28;20180;-80
2022/09/11 12:58:18;;;;;;;0.90;0.87;;;22.20;99.90;;;;;;5073849;28;20191;-81
2022/09/11 13:00:49;;;;;;;0.77;0.77;;;22.60;99.90;;;;;;5078276;28;20179;-81
2022/09/11 13:03:23;;;;;;;1.00;0.70;;;22.80;99.90;;;;;;5073425;28;20205;-80
2022/09/11 13:06:13;;;;;;;2.33;1.33;;;23.30;99.90;;;;;;5073279;28;20338;-81
2022/09/11 13:09:00;;;;;;;0.90;0.90;;;23.40;99.90;;;;;;5074658;28;20195;-81
2022/09/11 13:11:48;;;;;;;0.67;0.60;;;22.90;99.90;;;;;;5063840;28;20282;-80
2022/09/11 13:14:29;;;;;;;1.07;0.70;;;23.00;99.90;;;;;;5077063;28;20180;-81
2022/09/11 13:17:00;;;;;;;2.20;0.93;;;23.10;99.90;;;;;;5074014;28;20267;-81
2022/09/11 13:19:36;;;;;;;1.07;1.07;;;23.10;99.90;;;;;;5074109;28;20241;-81
2022/09/11 13:22:22;;;;;;;1.00;1.00;;;23.10;99.90;;;;;;5080241;28;20303;-81
2022/09/11 13:24:49;;;;;;;0.57;0.43;;;22.80;99.90;;;;;;5075484;28;20191;-80